createdAt,value
2023-08-05T00:00:32.928Z,299.74
2023-08-05T00:01:32.916Z,301.40
2023-08-05T00:02:33.596Z,301.12
2023-08-05T00:03:32.933Z,300.57
2023-08-05T00:04:32.869Z,301.40
2023-08-05T00:05:32.659Z,300.84
2023-08-05T00:06:33.528Z,301.40
2023-08-05T00:07:32.823Z,300.29
2023-08-05T00:08:33.487Z,301.40
2023-08-05T00:09:32.817Z,302.23
2023-08-05T00:10:32.766Z,303.63
2023-08-05T00:11:32.840Z,301.67
2023-08-05T00:12:32.753Z,303.35
2023-08-05T00:13:32.021Z,301.95
2023-08-05T00:14:32.725Z,302.23
2023-08-05T00:15:32.690Z,303.91
2023-08-05T00:16:32.757Z,302.51
2023-08-05T00:17:32.753Z,303.91
2023-08-05T00:18:32.620Z,304.47
2023-08-05T00:19:32.311Z,304.47
2023-08-05T00:20:32.621Z,305.04
2023-08-05T00:21:32.384Z,305.61
2023-08-05T00:22:32.613Z,305.32
2023-08-05T00:23:32.627Z,305.04
2023-08-05T00:24:33.828Z,306.18
2023-08-05T00:25:33.263Z,305.32
2023-08-05T00:26:33.788Z,307.61
2023-08-05T00:27:33.773Z,306.75
2023-08-05T00:28:33.216Z,306.46
2023-08-05T00:29:32.546Z,307.90
2023-08-05T00:30:33.727Z,307.33
2023-08-05T00:31:32.515Z,309.64
2023-08-05T00:32:33.770Z,307.61
2023-08-05T00:33:33.683Z,309.06
2023-08-05T00:34:34.175Z,307.90
2023-08-05T00:35:32.428Z,307.33
2023-08-05T00:36:32.415Z,309.94
2023-08-05T00:37:32.433Z,310.52
2023-08-05T00:38:32.393Z,311.70
2023-08-05T00:39:32.351Z,312.60
2023-08-05T00:40:32.363Z,312.30
2023-08-05T00:41:32.343Z,312.00
2023-08-05T00:42:32.330Z,311.41
2023-08-05T00:43:33.025Z,312.89
2023-08-05T00:44:32.328Z,311.70
2023-08-05T00:45:32.293Z,310.82
2023-08-05T00:46:32.951Z,310.52
2023-08-05T00:47:33.518Z,309.94
2023-08-05T00:48:32.933Z,312.60
2023-08-05T00:49:32.933Z,309.64
2023-08-05T00:50:32.232Z,312.30
2023-08-05T00:51:32.212Z,312.30
2023-08-05T00:52:32.193Z,312.00
2023-08-05T00:53:32.201Z,312.00
2023-08-05T00:54:32.166Z,309.94
2023-08-05T00:55:32.169Z,311.70
2023-08-05T00:56:32.147Z,312.30
2023-08-05T00:57:32.129Z,313.79
2023-08-05T00:58:32.133Z,311.41
2023-08-05T00:59:32.777Z,312.00
2023-08-05T01:00:32.102Z,312.60
2023-08-05T01:01:32.148Z,311.41
2023-08-05T01:02:32.077Z,312.30
2023-08-05T01:03:32.032Z,308.77
2023-08-05T01:04:32.031Z,313.19
2023-08-05T01:05:32.071Z,311.70
2023-08-05T01:06:32.674Z,310.23
2023-08-05T01:07:31.977Z,309.94
2023-08-05T01:08:32.652Z,311.41
2023-08-05T01:09:31.704Z,310.82
2023-08-05T01:10:32.635Z,311.11
2023-08-05T01:11:31.942Z,309.06
2023-08-05T01:12:31.912Z,312.30
2023-08-05T01:13:32.589Z,311.41
2023-08-05T01:14:31.902Z,312.30
2023-08-05T01:15:31.979Z,312.30
2023-08-05T01:16:31.844Z,312.30
2023-08-05T01:17:31.876Z,312.30
2023-08-05T01:18:31.877Z,313.49
2023-08-05T01:19:32.510Z,313.19
2023-08-05T01:20:31.825Z,315.30
2023-08-05T01:21:31.788Z,315.00
2023-08-05T01:22:31.782Z,315.00
2023-08-05T01:23:31.781Z,317.74
2023-08-05T01:24:31.762Z,314.69
2023-08-05T01:25:31.006Z,314.09
2023-08-05T01:26:31.720Z,315.30
2023-08-05T01:27:32.444Z,315.91
2023-08-05T01:28:31.701Z,315.60
2023-08-05T01:29:31.694Z,316.52
2023-08-05T01:30:31.697Z,317.74
2023-08-05T01:31:31.685Z,319.60
2023-08-05T01:32:31.653Z,319.91
2023-08-05T01:33:32.357Z,318.67
2023-08-05T01:34:32.314Z,317.13
2023-08-05T01:35:32.288Z,319.91
2023-08-05T01:36:31.629Z,319.91
2023-08-05T01:37:32.260Z,318.98
2023-08-05T01:38:31.584Z,319.29
2023-08-05T01:39:31.554Z,318.98
2023-08-05T01:40:31.516Z,318.98
2023-08-05T01:41:31.499Z,319.91
2023-08-05T01:42:31.518Z,319.29
2023-08-05T01:43:31.503Z,318.98
2023-08-05T01:44:31.510Z,320.85
2023-08-05T01:45:31.444Z,320.22
2023-08-05T01:46:31.528Z,318.67
2023-08-05T01:47:31.487Z,318.67
2023-08-05T01:48:31.426Z,319.29
2023-08-05T01:49:32.086Z,319.91
2023-08-05T01:50:32.080Z,318.36
2023-08-05T01:51:31.386Z,321.48
2023-08-05T01:52:32.053Z,320.22
2023-08-05T01:53:31.358Z,319.60
2023-08-05T01:54:31.346Z,320.54
2023-08-05T01:55:31.312Z,320.85
2023-08-05T01:56:31.315Z,319.60
2023-08-05T01:57:31.304Z,319.29
2023-08-05T01:58:31.963Z,321.48
2023-08-05T01:59:31.315Z,318.98
2023-08-05T02:00:31.944Z,322.42
2023-08-05T02:01:31.254Z,321.79
2023-08-05T02:02:31.277Z,321.79
2023-08-05T02:03:31.383Z,322.74
2023-08-05T02:04:31.185Z,321.48
2023-08-05T02:05:31.182Z,322.42
2023-08-05T02:06:31.223Z,319.91
2023-08-05T02:07:31.163Z,321.16
2023-08-05T02:08:32.389Z,322.74
2023-08-05T02:09:31.131Z,322.11
2023-08-05T02:10:31.123Z,324.66
2023-08-05T02:11:31.113Z,320.54
2023-08-05T02:12:31.115Z,324.66
2023-08-05T02:13:31.084Z,324.34
2023-08-05T02:14:31.757Z,322.42
2023-08-05T02:15:31.052Z,322.74
2023-08-05T02:16:31.095Z,322.74
2023-08-05T02:17:31.070Z,321.79
2023-08-05T02:18:30.997Z,321.16
2023-08-05T02:19:31.752Z,324.34
2023-08-05T02:20:30.742Z,323.38
2023-08-05T02:21:30.995Z,324.02
2023-08-05T02:22:30.964Z,325.30
2023-08-05T02:23:30.926Z,324.02
2023-08-05T02:24:31.602Z,325.30
2023-08-05T02:25:31.590Z,324.98
2023-08-05T02:26:30.800Z,324.02
2023-08-05T02:27:30.894Z,325.30
2023-08-05T02:28:30.798Z,326.27
2023-08-05T02:29:31.532Z,325.30
2023-08-05T02:30:30.860Z,326.92
2023-08-05T02:31:30.880Z,324.02
2023-08-05T02:32:30.887Z,324.02
2023-08-05T02:33:32.057Z,324.98
2023-08-05T02:34:30.812Z,324.98
2023-08-05T02:35:32.024Z,325.62
2023-08-05T02:36:30.735Z,325.95
2023-08-05T02:37:31.980Z,326.92
2023-08-05T02:38:31.971Z,327.25
2023-08-05T02:39:31.941Z,327.90
2023-08-05T02:40:31.923Z,325.95
2023-08-05T02:41:31.915Z,327.25
2023-08-05T02:42:31.904Z,326.92
2023-08-05T02:43:31.894Z,329.55
2023-08-05T02:44:31.325Z,328.23
2023-08-05T02:45:31.860Z,328.23
2023-08-05T02:46:31.908Z,329.22
2023-08-05T02:47:31.879Z,330.21
2023-08-05T02:48:31.810Z,330.55
2023-08-05T02:49:30.641Z,328.89
2023-08-05T02:50:31.237Z,328.56
2023-08-05T02:51:31.237Z,329.22
2023-08-05T02:52:29.817Z,328.56
2023-08-05T02:53:30.575Z,330.21
2023-08-05T02:54:30.559Z,331.55
2023-08-05T02:55:30.586Z,332.22
2023-08-05T02:56:30.463Z,330.88
2023-08-05T02:57:30.454Z,330.88
2023-08-05T02:58:31.677Z,331.55
2023-08-05T02:59:30.444Z,331.88
2023-08-05T03:00:30.432Z,335.27
2023-08-05T03:01:30.423Z,332.89
2023-08-05T03:02:30.411Z,331.88
2023-08-05T03:03:30.394Z,333.91
2023-08-05T03:04:30.371Z,334.93
2023-08-05T03:05:30.379Z,334.59
2023-08-05T03:06:29.837Z,334.59
2023-08-05T03:07:30.440Z,333.57
2023-08-05T03:08:30.323Z,335.27
2023-08-05T03:09:30.301Z,335.27
2023-08-05T03:10:30.281Z,332.89
2023-08-05T03:11:30.250Z,332.55
2023-08-05T03:12:30.258Z,333.57
2023-08-05T03:13:30.292Z,333.57
2023-08-05T03:14:30.275Z,332.55
2023-08-05T03:15:30.915Z,333.23
2023-08-05T03:16:29.881Z,332.89
2023-08-05T03:17:30.195Z,332.55
2023-08-05T03:18:30.183Z,335.27
2023-08-05T03:19:30.169Z,336.30
2023-08-05T03:20:30.138Z,332.55
2023-08-05T03:21:30.151Z,335.27
2023-08-05T03:22:29.862Z,337.00
2023-08-05T03:23:30.112Z,334.93
2023-08-05T03:24:29.354Z,335.27
2023-08-05T03:25:30.101Z,334.25
2023-08-05T03:26:30.088Z,336.30
2023-08-05T03:27:30.054Z,336.65
2023-08-05T03:28:30.706Z,338.73
2023-08-05T03:29:30.036Z,337.69
2023-08-05T03:30:29.999Z,337.69
2023-08-05T03:31:30.151Z,337.34
2023-08-05T03:32:29.903Z,339.44
2023-08-05T03:33:29.975Z,335.27
2023-08-05T03:34:29.933Z,340.14
2023-08-05T03:35:30.622Z,340.14
2023-08-05T03:36:30.606Z,339.79
2023-08-05T03:37:29.966Z,338.04
2023-08-05T03:38:29.869Z,340.49
2023-08-05T03:39:31.120Z,340.49
2023-08-05T03:40:29.155Z,339.79
2023-08-05T03:41:29.131Z,342.27
2023-08-05T03:42:30.529Z,340.49
2023-08-05T03:43:29.143Z,340.49
2023-08-05T03:44:29.798Z,341.56
2023-08-05T03:45:30.486Z,341.20
2023-08-05T03:46:29.199Z,343.70
2023-08-05T03:47:29.813Z,342.27
2023-08-05T03:48:30.436Z,342.98
2023-08-05T03:49:29.730Z,342.27
2023-08-05T03:50:30.413Z,344.42
2023-08-05T03:51:29.729Z,343.34
2023-08-05T03:52:29.710Z,343.70
2023-08-05T03:53:29.687Z,342.63
2023-08-05T03:54:29.662Z,343.34
2023-08-05T03:55:30.357Z,342.27
2023-08-05T03:56:29.664Z,342.27
2023-08-05T03:57:30.319Z,344.42
2023-08-05T03:58:29.609Z,345.15
2023-08-05T03:59:29.619Z,344.06
2023-08-05T04:00:29.602Z,343.34
2023-08-05T04:01:29.659Z,342.98
2023-08-05T04:02:30.303Z,342.63
2023-08-05T04:03:29.554Z,342.63
2023-08-05T04:04:28.813Z,345.15
2023-08-05T04:05:29.534Z,345.51
2023-08-05T04:06:29.520Z,342.27
2023-08-05T04:07:29.508Z,344.06
2023-08-05T04:08:29.461Z,344.42
2023-08-05T04:09:30.158Z,345.15
2023-08-05T04:10:29.468Z,342.98
2023-08-05T04:11:29.489Z,342.98
2023-08-05T04:12:28.698Z,343.70
2023-08-05T04:13:29.422Z,347.71
2023-08-05T04:14:29.453Z,344.79
2023-08-05T04:15:30.064Z,345.88
2023-08-05T04:16:29.385Z,346.61
2023-08-05T04:17:29.434Z,344.42
2023-08-05T04:18:29.396Z,346.24
2023-08-05T04:19:29.333Z,342.63
2023-08-05T04:20:28.584Z,347.71
2023-08-05T04:21:30.035Z,343.34
2023-08-05T04:22:29.270Z,345.15
2023-08-05T04:23:29.281Z,347.34
2023-08-05T04:24:29.937Z,345.51
2023-08-05T04:25:29.919Z,345.15
2023-08-05T04:26:29.224Z,346.24
2023-08-05T04:27:29.204Z,346.24
2023-08-05T04:28:28.931Z,348.08
2023-08-05T04:29:29.869Z,349.56
2023-08-05T04:30:29.193Z,349.56
2023-08-05T04:31:29.860Z,348.82
2023-08-05T04:32:29.204Z,351.43
2023-08-05T04:33:29.152Z,352.57
2023-08-05T04:34:28.562Z,354.09
2023-08-05T04:35:29.120Z,352.19
2023-08-05T04:36:28.373Z,350.31
2023-08-05T04:37:29.108Z,353.33
2023-08-05T04:38:29.074Z,351.81
2023-08-05T04:39:29.097Z,351.06
2023-08-05T04:40:29.712Z,351.81
2023-08-05T04:41:29.001Z,353.71
2023-08-05T04:42:29.015Z,354.09
2023-08-05T04:43:29.002Z,351.06
2023-08-05T04:44:28.243Z,354.47
2023-08-05T04:45:29.104Z,352.19
2023-08-05T04:46:28.950Z,352.57
2023-08-05T04:47:28.977Z,351.81
2023-08-05T04:48:30.163Z,353.33
2023-08-05T04:49:28.924Z,350.31
2023-08-05T04:50:28.175Z,352.19
2023-08-05T04:51:30.122Z,351.06
2023-08-05T04:52:28.917Z,350.68
2023-08-05T04:53:30.073Z,350.68
2023-08-05T04:54:29.571Z,353.33
2023-08-05T04:55:28.831Z,351.43
2023-08-05T04:56:30.069Z,353.33
2023-08-05T04:57:30.033Z,349.93
2023-08-05T04:58:30.012Z,349.93
2023-08-05T04:59:29.999Z,349.56
2023-08-05T05:00:30.201Z,351.06
2023-08-05T05:01:30.088Z,349.19
2023-08-05T05:02:28.778Z,350.31
2023-08-05T05:03:29.978Z,347.34
2023-08-05T05:04:29.375Z,347.34
2023-08-05T05:05:29.375Z,347.34
2023-08-05T05:06:29.355Z,348.82
2023-08-05T05:07:28.670Z,346.97
2023-08-05T05:08:28.701Z,346.24
2023-08-05T05:09:28.648Z,343.70
2023-08-05T05:10:29.313Z,344.06
2023-08-05T05:11:29.287Z,344.06
2023-08-05T05:12:28.602Z,343.34
2023-08-05T05:13:28.577Z,345.51
2023-08-05T05:14:28.551Z,342.27
2023-08-05T05:15:28.874Z,340.85
2023-08-05T05:16:29.292Z,342.63
2023-08-05T05:17:28.552Z,340.14
2023-08-05T05:18:28.566Z,338.39
2023-08-05T05:19:28.488Z,339.08
2023-08-05T05:20:28.505Z,337.34
2023-08-05T05:21:28.529Z,335.96
2023-08-05T05:22:28.467Z,335.27
2023-08-05T05:23:29.128Z,334.93
2023-08-05T05:24:28.413Z,335.62
2023-08-05T05:25:29.110Z,332.55
2023-08-05T05:26:28.422Z,331.21
2023-08-05T05:27:28.434Z,329.88
2023-08-05T05:28:28.382Z,330.21
2023-08-05T05:29:28.347Z,327.58
2023-08-05T05:30:29.072Z,329.22
2023-08-05T05:31:28.369Z,328.56
2023-08-05T05:32:29.038Z,326.60
2023-08-05T05:33:28.310Z,325.95
2023-08-05T05:34:28.977Z,326.27
2023-08-05T05:35:28.325Z,325.30
2023-08-05T05:36:29.003Z,323.70
2023-08-05T05:37:28.273Z,322.74
2023-08-05T05:38:27.596Z,321.16
2023-08-05T05:39:28.243Z,321.79
2023-08-05T05:40:28.220Z,318.36
2023-08-05T05:41:27.549Z,320.54
2023-08-05T05:42:28.411Z,318.05
2023-08-05T05:43:28.858Z,318.98
2023-08-05T05:44:28.160Z,318.67
2023-08-05T05:45:28.141Z,316.52
2023-08-05T05:46:28.199Z,315.00
2023-08-05T05:47:28.106Z,311.41
2023-08-05T05:48:28.086Z,312.30
2023-08-05T05:49:28.135Z,310.82
2023-08-05T05:50:28.082Z,309.35
2023-08-05T05:51:28.743Z,311.11
2023-08-05T05:52:28.041Z,309.94
2023-08-05T05:53:28.009Z,310.23
2023-08-05T05:54:28.025Z,308.77
2023-08-05T05:55:28.052Z,308.48
2023-08-05T05:56:27.997Z,307.04
2023-08-05T05:57:27.966Z,306.18
2023-08-05T05:58:27.965Z,304.76
2023-08-05T05:59:27.953Z,302.51
2023-08-05T06:00:27.950Z,303.35
2023-08-05T06:01:27.930Z,300.84
2023-08-05T06:02:27.891Z,298.93
2023-08-05T06:03:28.056Z,296.23
2023-08-05T06:04:28.692Z,295.16
2023-08-05T06:05:27.925Z,293.05
2023-08-05T06:06:28.552Z,290.97
2023-08-05T06:07:27.827Z,290.46
2023-08-05T06:08:28.506Z,289.18
2023-08-05T06:09:27.824Z,289.43
2023-08-05T06:10:27.861Z,286.40
2023-08-05T06:11:29.043Z,284.42
2023-08-05T06:12:27.772Z,283.68
2023-08-05T06:13:27.799Z,283.19
2023-08-05T06:14:27.758Z,281.97
2023-08-05T06:15:27.739Z,280.29
2023-08-05T06:16:27.720Z,279.33
2023-08-05T06:17:28.389Z,277.91
2023-08-05T06:18:28.355Z,277.21
2023-08-05T06:19:27.668Z,275.35
2023-08-05T06:20:27.671Z,275.58
2023-08-05T06:21:27.628Z,273.28
2023-08-05T06:22:28.318Z,272.37
2023-08-05T06:23:27.675Z,271.92
2023-08-05T06:24:27.601Z,270.35
2023-08-05T06:25:27.568Z,269.24
2023-08-05T06:26:27.552Z,266.19
2023-08-05T06:27:27.558Z,265.54
2023-08-05T06:28:27.627Z,263.83
2023-08-05T06:29:27.588Z,262.78
2023-08-05T06:30:27.519Z,261.10
2023-08-05T06:31:27.513Z,261.10
2023-08-05T06:32:28.196Z,259.04
2023-08-05T06:33:27.481Z,257.21
2023-08-05T06:34:27.439Z,257.01
2023-08-05T06:35:27.474Z,253.83
2023-08-05T06:36:27.452Z,251.30
2023-08-05T06:37:27.437Z,249.58
2023-08-05T06:38:27.453Z,246.03
2023-08-05T06:39:28.086Z,242.93
2023-08-05T06:40:28.174Z,239.74
2023-08-05T06:41:28.581Z,233.93
2023-08-05T06:42:28.064Z,226.34
2023-08-05T06:43:27.341Z,216.77
2023-08-05T06:44:27.297Z,206.93
2023-08-05T06:45:27.319Z,200.60
2023-08-05T06:46:27.352Z,194.88
2023-08-05T06:47:28.534Z,189.48
2023-08-05T06:48:27.248Z,185.41
2023-08-05T06:49:26.737Z,182.18
2023-08-05T06:50:27.244Z,178.29
2023-08-05T06:51:27.060Z,176.96
2023-08-05T06:52:27.882Z,173.83
2023-08-05T06:53:27.225Z,172.21
2023-08-05T06:54:27.199Z,168.22
2023-08-05T06:55:27.171Z,165.71
2023-08-05T06:56:27.830Z,163.28
2023-08-05T06:57:27.666Z,160.92
2023-08-05T06:58:27.113Z,160.15
2023-08-05T06:59:26.832Z,158.48
2023-08-05T07:00:26.471Z,155.96
2023-08-05T07:01:27.248Z,154.51
2023-08-05T07:02:28.313Z,152.26
2023-08-05T07:03:28.318Z,151.71
2023-08-05T07:04:28.295Z,150.20
2023-08-05T07:05:28.249Z,147.42
2023-08-05T07:06:27.071Z,145.87
2023-08-05T07:07:27.018Z,145.24
2023-08-05T07:08:27.021Z,145.87
2023-08-05T07:09:28.206Z,144.36
2023-08-05T07:10:26.969Z,143.73
2023-08-05T07:11:26.950Z,143.12
2023-08-05T07:12:26.916Z,142.99
2023-08-05T07:13:26.926Z,141.66
2023-08-05T07:14:26.931Z,140.94
2023-08-05T07:15:26.900Z,139.76
2023-08-05T07:16:27.044Z,139.18
2023-08-05T07:17:26.929Z,139.64
2023-08-05T07:18:26.859Z,138.60
2023-08-05T07:19:26.869Z,138.26
2023-08-05T07:20:26.852Z,137.01
2023-08-05T07:21:26.803Z,137.46
2023-08-05T07:22:27.645Z,136.67
2023-08-05T07:23:26.805Z,136.34
2023-08-05T07:24:26.810Z,134.79
2023-08-05T07:25:26.782Z,134.79
2023-08-05T07:26:27.439Z,134.04
2023-08-05T07:27:26.769Z,132.76
2023-08-05T07:28:26.748Z,133.18
2023-08-05T07:29:29.029Z,132.55
2023-08-05T07:30:26.710Z,132.65
2023-08-05T07:31:26.679Z,133.07
2023-08-05T07:32:26.726Z,132.13
2023-08-05T07:33:26.659Z,133.07
2023-08-05T07:34:26.635Z,132.86
2023-08-05T07:35:27.313Z,133.71
2023-08-05T07:36:26.579Z,133.50
2023-08-05T07:37:26.644Z,133.39
2023-08-05T07:38:26.615Z,134.68
2023-08-05T07:39:25.829Z,136.00
2023-08-05T07:40:26.174Z,136.90
2023-08-05T07:41:26.578Z,136.56
2023-08-05T07:42:26.530Z,136.67
2023-08-05T07:43:27.182Z,138.03
2023-08-05T07:44:26.522Z,139.53
2023-08-05T07:45:26.473Z,140.11
2023-08-05T07:46:27.694Z,141.78
2023-08-05T07:47:26.299Z,142.75
2023-08-05T07:48:26.443Z,142.99
2023-08-05T07:49:27.150Z,142.38
2023-08-05T07:50:26.394Z,141.54
2023-08-05T07:51:26.440Z,141.06
2023-08-05T07:52:26.401Z,141.30
2023-08-05T07:53:26.373Z,143.49
2023-08-05T07:54:26.342Z,146.25
2023-08-05T07:55:25.754Z,149.13
2023-08-05T07:56:25.624Z,151.15
2023-08-05T07:57:26.366Z,150.07
2023-08-05T07:58:26.319Z,151.15
2023-08-05T07:59:26.280Z,153.52
2023-08-05T08:00:26.297Z,154.80
2023-08-05T08:01:26.295Z,157.43
2023-08-05T08:02:26.301Z,158.03
2023-08-05T08:03:26.033Z,160.77
2023-08-05T08:04:26.209Z,161.54
2023-08-05T08:05:26.265Z,162.96
2023-08-05T08:06:26.220Z,164.41
2023-08-05T08:07:26.191Z,166.21
2023-08-05T08:08:26.863Z,167.54
2023-08-05T08:09:26.192Z,168.73
2023-08-05T08:10:26.838Z,170.11
2023-08-05T08:11:26.815Z,171.86
2023-08-05T08:12:26.792Z,173.65
2023-08-05T08:13:26.087Z,174.01
2023-08-05T08:14:26.799Z,172.75
2023-08-05T08:15:26.096Z,172.21
2023-08-05T08:16:26.124Z,172.93
2023-08-05T08:17:27.310Z,173.83
2023-08-05T08:18:26.048Z,175.29
2023-08-05T08:19:26.040Z,177.15
2023-08-05T08:20:26.038Z,179.82
2023-08-05T08:21:26.686Z,179.05
2023-08-05T08:22:26.018Z,179.24
2023-08-05T08:23:26.228Z,180.21
2023-08-05T08:24:26.037Z,180.60
2023-08-05T08:25:26.620Z,180.21
2023-08-05T08:26:25.971Z,180.02
2023-08-05T08:27:25.283Z,178.86
2023-08-05T08:28:25.889Z,181.19
2023-08-05T08:29:25.894Z,182.98
2023-08-05T08:30:25.897Z,185.83
2023-08-05T08:31:25.893Z,186.57
2023-08-05T08:32:26.605Z,186.89
2023-08-05T08:33:25.940Z,187.85
2023-08-05T08:34:27.288Z,189.70
2023-08-05T08:35:25.862Z,192.26
2023-08-05T08:36:25.797Z,193.85
2023-08-05T08:37:25.785Z,195.23
2023-08-05T08:38:25.788Z,198.30
2023-08-05T08:39:25.772Z,201.22
2023-08-05T08:40:25.748Z,204.22
2023-08-05T08:41:26.411Z,208.37
2023-08-05T08:42:25.696Z,213.53
2023-08-05T08:43:25.709Z,218.07
2023-08-05T08:44:25.729Z,217.35
2023-08-05T08:45:25.720Z,219.23
2023-08-05T08:46:25.636Z,221.90
2023-08-05T08:47:25.623Z,222.96
2023-08-05T08:48:26.320Z,223.72
2023-08-05T08:49:25.630Z,222.96
2023-08-05T08:50:25.608Z,224.02
2023-08-05T08:51:25.628Z,225.72
2023-08-05T08:52:25.588Z,224.95
2023-08-05T08:53:25.591Z,226.18
2023-08-05T08:54:25.562Z,227.44
2023-08-05T08:55:25.548Z,228.71
2023-08-05T08:56:25.505Z,229.19
2023-08-05T08:57:25.520Z,224.33
2023-08-05T08:58:25.516Z,224.79
2023-08-05T08:59:25.489Z,225.25
2023-08-05T09:00:25.458Z,226.18
2023-08-05T09:01:25.485Z,226.81
2023-08-05T09:02:25.579Z,228.87
2023-08-05T09:03:25.481Z,232.60
2023-08-05T09:04:25.411Z,235.94
2023-08-05T09:05:25.390Z,238.52
2023-08-05T09:06:25.396Z,241.50
2023-08-05T09:07:25.373Z,241.32
2023-08-05T09:08:25.366Z,244.74
2023-08-05T09:09:25.378Z,246.21
2023-08-05T09:10:25.355Z,249.21
2023-08-05T09:11:26.555Z,252.66
2023-08-05T09:12:25.331Z,250.54
2023-08-05T09:13:25.206Z,252.27
2023-08-05T09:14:25.304Z,255.01
2023-08-05T09:15:25.251Z,257.42
2023-08-05T09:16:25.273Z,261.52
2023-08-05T09:17:25.246Z,266.40
2023-08-05T09:18:25.241Z,270.80
2023-08-05T09:19:26.460Z,278.86
2023-08-05T09:20:26.421Z,281.01
2023-08-05T09:21:26.410Z,283.43
2023-08-05T09:22:25.242Z,282.46
2023-08-05T09:23:25.343Z,283.92
2023-08-05T09:24:25.837Z,281.49
2023-08-05T09:25:25.175Z,283.19
2023-08-05T09:26:25.143Z,280.29
2023-08-05T09:27:25.117Z,276.74
2023-08-05T09:28:25.085Z,281.49
2023-08-05T09:29:25.074Z,284.66
2023-08-05T09:30:25.769Z,282.94
2023-08-05T09:31:25.171Z,286.90
2023-08-05T09:32:37.222Z,290.46
2023-08-05T09:33:26.018Z,297.03
2023-08-05T09:34:25.025Z,302.23
2023-08-05T09:35:25.702Z,304.19
2023-08-05T09:36:24.994Z,307.61
2023-08-05T09:37:24.988Z,308.19
2023-08-05T09:38:24.951Z,307.90
2023-08-05T09:39:24.965Z,311.70
2023-08-05T09:40:24.947Z,321.79
2023-08-05T09:41:24.946Z,326.27
2023-08-05T09:42:25.655Z,330.88
2023-08-05T09:43:24.890Z,337.00
2023-08-05T09:44:24.901Z,348.45
2023-08-05T09:45:24.903Z,357.17
2023-08-05T09:46:24.869Z,363.10
2023-08-05T09:47:25.582Z,367.16
2023-08-05T09:48:24.851Z,373.01
2023-08-05T09:49:24.827Z,371.74
2023-08-05T09:50:24.820Z,373.43
2023-08-05T09:51:24.856Z,378.17
2023-08-05T09:52:24.798Z,376.86
2023-08-05T09:53:24.832Z,376.00
2023-08-05T09:54:24.779Z,384.34
2023-08-05T09:55:24.759Z,388.14
2023-08-05T09:56:24.777Z,392.26
2023-08-05T09:57:25.846Z,393.41
2023-08-05T09:58:24.740Z,401.22
2023-08-05T09:59:24.711Z,402.43
2023-08-05T10:00:24.723Z,403.16
2023-08-05T10:01:24.658Z,405.37
2023-08-05T10:02:24.678Z,404.63
2023-08-05T10:03:24.655Z,406.36
2023-08-05T10:04:24.666Z,411.37
2023-08-05T10:05:25.311Z,417.82
2023-08-05T10:06:24.592Z,428.56
2023-08-05T10:07:24.595Z,443.37
2023-08-05T10:08:24.588Z,443.96
2023-08-05T10:09:24.581Z,449.05
2023-08-05T10:10:24.544Z,450.26
2023-08-05T10:11:24.566Z,453.01
2023-08-05T10:12:24.673Z,453.94
2023-08-05T10:13:24.526Z,455.18
2023-08-05T10:14:24.532Z,450.87
2023-08-05T10:15:25.196Z,452.70
2023-08-05T10:16:24.538Z,460.20
2023-08-05T10:17:24.489Z,458.93
2023-08-05T10:18:24.485Z,465.34
2023-08-05T10:19:25.115Z,463.72
2023-08-05T10:20:24.413Z,469.93
2023-08-05T10:21:24.447Z,477.67
2023-08-05T10:22:24.488Z,475.29
2023-08-05T10:23:24.446Z,481.12
2023-08-05T10:24:24.388Z,489.60
2023-08-05T10:25:24.345Z,493.22
2023-08-05T10:26:24.359Z,494.68
2023-08-05T10:27:24.377Z,495.42
2023-08-05T10:28:24.336Z,503.27
2023-08-05T10:29:24.431Z,509.81
2023-08-05T10:30:24.369Z,516.12
2023-08-05T10:31:25.540Z,530.07
2023-08-05T10:32:24.387Z,535.61
2023-08-05T10:33:25.525Z,536.90
2023-08-05T10:34:24.299Z,545.24
2023-08-05T10:35:24.241Z,551.10
2023-08-05T10:36:24.224Z,543.91
2023-08-05T10:37:24.242Z,535.18
2023-08-05T10:38:24.321Z,550.19
2023-08-05T10:39:25.441Z,551.56
2023-08-05T10:40:24.183Z,560.84
2023-08-05T10:41:24.183Z,572.39
2023-08-05T10:42:23.453Z,580.86
2023-08-05T10:43:24.160Z,590.12
2023-08-05T10:44:24.206Z,595.92
2023-08-05T10:45:24.106Z,601.29
2023-08-05T10:46:24.235Z,602.38
2023-08-05T10:47:24.164Z,597.52
2023-08-05T10:48:24.067Z,596.99
2023-08-05T10:49:24.105Z,603.47
2023-08-05T10:50:24.047Z,614.59
2023-08-05T10:51:24.073Z,627.90
2023-08-05T10:52:24.700Z,626.72
2023-08-05T10:53:24.736Z,638.12
2023-08-05T10:54:24.076Z,639.34
2023-08-05T10:55:24.049Z,648.67
2023-08-05T10:56:25.217Z,656.33
2023-08-05T10:57:23.965Z,662.20
2023-08-05T10:58:24.635Z,670.86
2023-08-05T10:59:24.026Z,674.25
2023-08-05T11:00:24.039Z,686.75
2023-08-05T11:01:23.937Z,701.19
2023-08-05T11:02:24.137Z,713.19
2023-08-05T11:03:23.999Z,715.49
2023-08-05T11:04:23.870Z,708.64
2023-08-05T11:05:23.910Z,712.43
2023-08-05T11:06:23.859Z,722.46
2023-08-05T11:07:23.819Z,718.57
2023-08-05T11:08:23.849Z,727.98
2023-08-05T11:09:23.822Z,730.38
2023-08-05T11:10:23.793Z,740.93
2023-08-05T11:11:23.789Z,730.38
2023-08-05T11:12:23.814Z,730.38
2023-08-05T11:13:23.767Z,729.58
2023-08-05T11:14:23.752Z,736.83
2023-08-05T11:15:23.749Z,749.58
2023-08-05T11:16:23.784Z,762.86
2023-08-05T11:17:23.758Z,766.80
2023-08-05T11:18:23.719Z,766.80
2023-08-05T11:19:23.720Z,786.68
2023-08-05T11:20:23.720Z,798.45
2023-08-05T11:21:23.755Z,784.83
2023-08-05T11:22:24.322Z,788.54
2023-08-05T11:23:23.652Z,808.11
2023-08-05T11:24:23.631Z,825.09
2023-08-05T11:25:23.591Z,833.33
2023-08-05T11:26:23.611Z,829.19
2023-08-05T11:27:23.584Z,828.16
2023-08-05T11:28:23.428Z,825.60
2023-08-05T11:29:23.576Z,815.52
2023-08-05T11:30:23.444Z,817.51
2023-08-05T11:31:23.649Z,818.02
2023-08-05T11:32:24.224Z,815.02
2023-08-05T11:33:24.232Z,797.02
2023-08-05T11:34:23.523Z,795.12
2023-08-05T11:35:24.759Z,710.91
2023-08-05T11:36:24.733Z,685.34
2023-08-05T11:37:23.480Z,683.93
2023-08-05T11:38:24.141Z,684.63
2023-08-05T11:39:23.459Z,685.34
2023-08-05T11:40:23.444Z,656.98
2023-08-05T11:41:24.944Z,636.90
2023-08-05T11:42:23.396Z,630.28
2023-08-05T11:43:23.404Z,622.05
2023-08-05T11:44:23.378Z,626.13
2023-08-05T11:45:23.372Z,628.49
2023-08-05T11:46:23.355Z,650.57
2023-08-05T11:47:23.357Z,664.84
2023-08-05T11:48:23.355Z,662.20
2023-08-05T11:49:23.334Z,659.58
2023-08-05T11:50:23.320Z,656.98
2023-08-05T11:51:23.310Z,652.48
2023-08-05T11:52:24.503Z,660.23
2023-08-05T11:53:23.247Z,654.40
2023-08-05T11:54:23.943Z,652.48
2023-08-05T11:55:23.268Z,655.04
2023-08-05T11:56:23.215Z,657.63
2023-08-05T11:57:23.262Z,653.76
2023-08-05T11:58:23.186Z,648.67
2023-08-05T11:59:23.226Z,648.04
2023-08-05T12:00:23.187Z,651.20
2023-08-05T12:01:23.303Z,658.93
2023-08-05T12:02:23.285Z,658.28
2023-08-05T12:03:23.155Z,663.52
2023-08-05T12:04:23.175Z,680.44
2023-08-05T12:05:23.223Z,685.34
2023-08-05T12:06:23.089Z,679.75
2023-08-05T12:07:23.058Z,683.23
2023-08-05T12:08:23.061Z,668.84
2023-08-05T12:09:23.642Z,649.93
2023-08-05T12:10:24.567Z,640.57
2023-08-05T12:11:23.060Z,632.67
2023-08-05T12:12:23.053Z,633.27
2023-08-05T12:13:23.034Z,640.57
2023-08-05T12:14:23.052Z,643.66
2023-08-05T12:15:24.286Z,637.51
2023-08-05T12:16:23.080Z,635.08
2023-08-05T12:17:24.513Z,623.21
2023-08-05T12:18:22.979Z,611.77
2023-08-05T12:19:22.910Z,608.42
2023-08-05T12:20:22.908Z,607.87
2023-08-05T12:21:22.915Z,603.47
2023-08-05T12:22:22.870Z,598.59
2023-08-05T12:23:22.862Z,599.67
2023-08-05T12:24:22.847Z,603.47
2023-08-05T12:25:22.833Z,601.84
2023-08-05T12:26:22.682Z,591.69
2023-08-05T12:27:22.802Z,588.04
2023-08-05T12:28:22.805Z,575.35